シャルル・ド・ゴール国際空港(パリ)の過去48時間の天気

シャルル・ド・ゴール国際空港(パリ) (Paris-Aeroport Charles De Gaulle)

現在時刻: 7/19 05:32 CEST (7/19 03:32 UTC) 以下の時間は現地時間です。

過去48時間のMETAR気象情報
時間 風向 風速(m/s) 視程 気温(℃) 湿度(%) 気圧(hPa) 天気現象
19 05:00 南西 3 10km以上 17 94 1015
19 04:30 南西 2 10km以上 17 94 1015
19 04:00 南西 2 10km以上 17 94 1015
19 03:30 西南西 2 10km以上 17 94 1015
19 03:00 西南西 2 10km以上 17 94 1015
19 02:30 西南西 2 10km以上 18 88 1015
19 02:00 西 2 10km以上 18 88 1015
19 01:30 西南西 2 10km以上 18 88 1015
19 01:00 南西 2 10km以上 18 94 1015
19 00:30 南西 3 10km以上 18 94 1015
19 00:00 西南西 3 10km以上 18 94 1015
18 23:30 西南西 2 10km以上 18 94 1015
18 23:00 西北西 4 3500m 18 94 1015 弱い雨 もや
18 22:30 西 3 3500m 18 94 1015 雨 もや
18 22:00 西北西 3 3500m 19 94 1014 弱い雨
18 21:30 西北西 4 5000m 19 88 1014 弱い雨
18 21:00 北西 5 10km以上 21 73 1014
18 20:30 西北西 4 10km以上 22 65 1013
18 20:00 西北西 4 10km以上 22 65 1013
18 19:30 西北西 5 10km以上 23 61 1013
18 19:00 西北西 5 10km以上 23 61 1013
18 18:30 西 4 10km以上 23 61 1013
18 18:00 西 7 10km以上 23 57 1013
18 17:30 西 7 10km以上 26 39 1013
18 17:00 西南西 5 10km以上 27 32 1013
18 16:30 南西 6 10km以上 27 32 1013
18 16:00 南西 6 10km以上 27 32 1013
18 15:30 南南西 5 10km以上 27 30 1013
18 15:00 南西 7 10km以上 26 32 1013
18 14:30 西南西 7 10km以上 26 34 1013
18 14:00 西南西 7 10km以上 25 41 1013
18 13:30 南西 5 10km以上 24 41 1013
18 13:00 南西 5 10km以上 24 41 1014
18 12:30 南西 5 10km以上 23 44 1014
18 12:00 西南西 4 10km以上 22 50 1014
18 11:30 西南西 4 10km以上 21 56 1014
18 11:00 南西 3 10km以上 21 56 1014
18 10:30 西南西 3 10km以上 20 60 1014
18 10:00 西 3 10km以上 19 68 1014
18 09:30 西 3 10km以上 18 68 1014
18 09:00 西 3 10km以上 18 68 1014
18 08:30 西北西 4 10km以上 17 72 1014
18 08:00 西 3 10km以上 17 68 1013
18 07:30 西 2 10km以上 16 68 1013
18 07:00 西北西 2 10km以上 16 59 1013
18 06:30 北西 2 10km以上 15 67 1013
18 06:00 北西 3 10km以上 16 59 1013
18 05:30 北西 3 10km以上 16 55 1013
18 05:00 北西 4 10km以上 16 59 1013
18 04:30 北西 3 10km以上 17 59 1013
18 04:00 西北西 2 10km以上 17 59 1013
18 03:30 西北西 2 10km以上 17 59 1013
18 03:00 北西 2 10km以上 18 56 1013
18 02:30 北西 2 10km以上 19 52 1013
18 02:00 西北西 2 10km以上 19 52 1013
18 01:30 不定 2 10km以上 19 56 1013
18 01:00 北北西 1 10km以上 20 49 1013
18 00:30 2 10km以上 20 49 1013
18 00:00 3 10km以上 20 53 1013
17 23:30 4 10km以上 21 53 1013
17 23:00 北北東 3 10km以上 22 50 1013
17 22:30 北北西 4 10km以上 22 41 1013
17 22:00 北北西 3 10km以上 23 36 1013
17 21:30 北西 4 10km以上 24 34 1013
17 21:00 北西 5 10km以上 25 32 1013
17 20:30 西北西 5 10km以上 25 34 1013
17 20:00 西 6 10km以上 27 30 1013
17 19:30 西 6 10km以上 28 25 1012
17 19:00 西北西 4 10km以上 28 25 1012
17 18:30 西 4 10km以上 29 27 1012
17 18:00 西 2 10km以上 28 30 1013
17 17:30 西 3 10km以上 28 30 1013
17 17:00 不定 2 10km以上 28 32 1013
17 16:30 南西 2 10km以上 28 30 1013
17 16:00 不定 2 10km以上 28 30 1014
17 15:30 4 10km以上 28 30 1014
17 15:00 南南西 4 10km以上 28 32 1014
17 14:30 不定 2 10km以上 26 34 1014
17 14:00 不定 2 10km以上 26 34 1015
17 13:30 不定 2 10km以上 26 34 1015
17 13:00 2 10km以上 26 37 1015
17 12:30 不定 2 10km以上 25 39 1015
17 12:00 東北東 2 10km以上 25 39 1016
17 11:30 不定 2 10km以上 24 41 1016
17 11:00 2 10km以上 23 44 1016
17 10:30 東南東 2 10km以上 22 46 1016
17 10:00 東南東 3 10km以上 21 49 1016
17 09:30 東南東 2 10km以上 21 49 1016
17 09:00 不定 2 10km以上 20 53 1016
17 08:30 北東 2 10km以上 19 56 1016
17 08:00 不定 1 10km以上 18 64 1016
17 07:30 東北東 2 10km以上 16 68 1016
17 07:00 東北東 3 10km以上 16 68 1016
17 06:30 北東 3 10km以上 15 72 1016
17 06:00 北北東 2 10km以上 14 72 1016
LFPG 190300Z 23005KT 9999 FEW007 SCT046 BKN100 17/16 Q1015 NOSIG
LFPG 190230Z 23004KT 9999 FEW006 SCT050 BKN100 17/16 Q1015 NOSIG
LFPG 190200Z 23004KT 9999 FEW005 BKN100 17/16 Q1015 NOSIG
LFPG 190130Z 24004KT CAVOK 17/16 Q1015 NOSIG
LFPG 190100Z 24004KT CAVOK 17/16 Q1015 NOSIG
LFPG 190030Z 25004KT 9999 SCT035 BKN066 18/16 Q1015 NOSIG
LFPG 190000Z 26003KT 9999 FEW007 BKN035 BKN067 18/16 Q1015 NOSIG
LFPG 182330Z 25004KT 9999 FEW007 BKN035 BKN067 18/16 Q1015 NOSIG
LFPG 182300Z 23004KT 9999 FEW005 BKN070 BKN120 18/17 Q1015 NOSIG
LFPG 182230Z 23005KT 9999 FEW005 BKN066 BKN120 18/17 Q1015 NOSIG
LFPG 182200Z 24005KT 9999 FEW007 BKN070 18/17 Q1015 NOSIG
LFPG 182130Z 24004KT 9999 FEW008 BKN029 18/17 Q1015 RERA NOSIG
LFPG 182100Z 30008KT 3500 -RA BR FEW003 BKN004 BKN008 18/17 Q1015 RERA BECMG 9999 NSW BKN020
LFPG 182030Z 28005KT 3500 RA BR FEW003 BKN004 BKN008 18/17 Q1015 BECMG 9999 NSW BKN020
LFPG 182000Z 29006KT 3500 -RA FEW005 BKN007 BKN047 19/18 Q1014 NOSIG
LFPG 181930Z 30008KT 5000 -RA FEW011 BKN045 19/17 Q1014 TEMPO 4500 -SHRA BKN014
LFPG 181900Z 32009KT 9999 FEW015 BKN053 21/16 Q1014 TEMPO 4500 -SHRA BKN014
LFPG 181830Z 30008KT 9999 FEW028 BKN060 22/15 Q1013 NOSIG
LFPG 181800Z 29008KT 9999 FEW035 BKN053 22/15 Q1013 NOSIG
LFPG 181730Z 29009KT 9999 FEW035 BKN053 23/15 Q1013 NOSIG
LFPG 181700Z 29009KT CAVOK 23/15 Q1013 NOSIG
LFPG 181630Z 28008KT CAVOK 23/15 Q1013 NOSIG
LFPG 181600Z 27013KT CAVOK 23/14 Q1013 NOSIG
LFPG 181530Z 26013KT CAVOK 26/11 Q1013 NOSIG
LFPG 181500Z 25010KT 220V290 CAVOK 27/09 Q1013 NOSIG
LFPG 181430Z 23011KT 190V260 CAVOK 27/09 Q1013 NOSIG
LFPG 181400Z 23011KT 200V270 CAVOK 27/09 Q1013 NOSIG
LFPG 181330Z 21010KT 150V250 CAVOK 27/08 Q1013 NOSIG
LFPG 181300Z 23013KT 200V270 CAVOK 26/08 Q1013 NOSIG
LFPG 181230Z 24013KT 200V290 CAVOK 26/09 Q1013 NOSIG
LFPG 181200Z 24013KT 200V270 CAVOK 25/11 Q1013 NOSIG
LFPG 181130Z 23010KT 200V260 CAVOK 24/10 Q1013 NOSIG
LFPG 181100Z 23009KT 190V260 CAVOK 24/10 Q1014 NOSIG
LFPG 181030Z 23010KT 200V270 CAVOK 23/10 Q1014 NOSIG
LFPG 181000Z 25008KT 210V290 CAVOK 22/11 Q1014 NOSIG
LFPG 180930Z 24007KT 200V290 CAVOK 21/12 Q1014 NOSIG
LFPG 180900Z 23006KT 190V270 CAVOK 21/12 Q1014 NOSIG
LFPG 180830Z 24006KT 200V280 CAVOK 20/12 Q1014 NOSIG
LFPG 180800Z 26006KT 210V300 CAVOK 19/13 Q1014 NOSIG
LFPG 180730Z 27005KT 240V300 CAVOK 18/12 Q1014 NOSIG
LFPG 180700Z 28005KT 240V310 CAVOK 18/12 Q1014 NOSIG
LFPG 180630Z 29008KT CAVOK 17/12 Q1014 NOSIG
LFPG 180600Z 28005KT CAVOK 17/11 Q1013 NOSIG
LFPG 180530Z 27003KT CAVOK 16/10 Q1013 NOSIG
LFPG 180500Z 30004KT CAVOK 16/08 Q1013 NOSIG
LFPG 180430Z 31003KT CAVOK 15/09 Q1013 NOSIG
LFPG 180400Z 31006KT CAVOK 16/08 Q1013 NOSIG
LFPG 180330Z 32006KT CAVOK 16/07 Q1013 NOSIG
LFPG 180300Z 32008KT CAVOK 16/08 Q1013 NOSIG
LFPG 180230Z 32005KT CAVOK 17/09 Q1013 NOSIG
LFPG 180200Z 30004KT CAVOK 17/09 Q1013 NOSIG
LFPG 180130Z 30004KT CAVOK 17/09 Q1013 NOSIG
LFPG 180100Z 32003KT CAVOK 18/09 Q1013 NOSIG
LFPG 180030Z 31003KT CAVOK 19/09 Q1013 NOSIG
LFPG 180000Z 29003KT CAVOK 19/09 Q1013 NOSIG
LFPG 172330Z VRB03KT CAVOK 19/10 Q1013 NOSIG
LFPG 172300Z 33001KT CAVOK 20/09 Q1013 NOSIG
LFPG 172230Z 36004KT CAVOK 20/09 Q1013 NOSIG
LFPG 172200Z 35005KT CAVOK 20/10 Q1013 NOSIG
LFPG 172130Z 36007KT CAVOK 21/11 Q1013 NOSIG
LFPG 172100Z 02006KT CAVOK 22/11 Q1013 NOSIG
LFPG 172030Z 34007KT CAVOK 22/08 Q1013 NOSIG
LFPG 172000Z 33006KT CAVOK 23/07 Q1013 NOSIG
LFPG 171930Z 32007KT CAVOK 24/07 Q1013 NOSIG
LFPG 171900Z 31009KT CAVOK 25/07 Q1013 NOSIG
LFPG 171830Z 29009KT CAVOK 25/08 Q1013 NOSIG
LFPG 171800Z 28012KT CAVOK 27/08 Q1013 NOSIG
LFPG 171730Z 27011KT CAVOK 28/06 Q1012 NOSIG
LFPG 171700Z 29007KT CAVOK 28/06 Q1012 NOSIG
LFPG 171630Z 26007KT 210V310 CAVOK 29/08 Q1012 NOSIG
LFPG 171600Z 28004KT 200V350 CAVOK 28/09 Q1013 NOSIG
LFPG 171530Z 26005KT 180V350 CAVOK 28/09 Q1013 NOSIG
LFPG 171500Z VRB03KT CAVOK 28/10 Q1013 NOSIG
LFPG 171430Z 23004KT 180V330 CAVOK 28/09 Q1013 NOSIG
LFPG 171400Z VRB03KT CAVOK 28/09 Q1014 NOSIG
LFPG 171330Z VRB07KT CAVOK 28/09 Q1014 NOSIG
LFPG 171300Z 21007KT 150V280 CAVOK 28/10 Q1014 NOSIG
LFPG 171230Z VRB04KT CAVOK 26/09 Q1014 NOSIG
LFPG 171200Z VRB04KT CAVOK 26/09 Q1015 NOSIG
LFPG 171130Z VRB03KT CAVOK 26/09 Q1015 NOSIG
LFPG 171100Z 19004KT 120V240 CAVOK 26/10 Q1015 NOSIG
LFPG 171030Z VRB04KT CAVOK 25/10 Q1015 NOSIG
LFPG 171000Z 06003KT 330V130 CAVOK 25/10 Q1016 NOSIG
LFPG 170930Z VRB04KT CAVOK 24/10 Q1016 NOSIG
LFPG 170900Z 08003KT 020V190 CAVOK 23/10 Q1016 NOSIG
LFPG 170830Z 11004KT 040V150 CAVOK 22/10 Q1016 NOSIG
LFPG 170800Z 11005KT 020V170 CAVOK 21/10 Q1016 NOSIG
LFPG 170730Z 12004KT 070V160 CAVOK 21/10 Q1016 NOSIG
LFPG 170700Z VRB03KT CAVOK 20/10 Q1016 NOSIG
LFPG 170630Z 04003KT 350V090 CAVOK 19/10 Q1016 NOSIG
LFPG 170600Z VRB02KT CAVOK 18/11 Q1016 NOSIG
LFPG 170530Z 07003KT CAVOK 16/10 Q1016 NOSIG
LFPG 170500Z 07005KT CAVOK 16/10 Q1016 NOSIG
LFPG 170430Z 04005KT CAVOK 15/10 Q1016 NOSIG
LFPG 170400Z 03004KT CAVOK 14/09 Q1016 NOSIG